createdAt,value
2017-12-19T00:00:24.232Z,20.60
2017-12-19T00:01:24.345Z,22.70
2017-12-19T00:02:24.355Z,19.70
2017-12-19T00:03:24.244Z,20.40
2017-12-19T00:04:45.311Z,21.10
2017-12-19T00:05:24.296Z,19.50
2017-12-19T00:06:24.321Z,21.30
2017-12-19T00:07:24.313Z,19.80
2017-12-19T00:08:24.421Z,19.90
2017-12-19T00:09:24.388Z,20.60
2017-12-19T00:10:45.369Z,18.50
2017-12-19T00:11:24.352Z,20.10
2017-12-19T00:12:24.380Z,21.60
2017-12-19T00:13:24.493Z,21.20
2017-12-19T00:14:24.406Z,19.20
2017-12-19T00:15:24.500Z,21.80
2017-12-19T00:16:45.525Z,20.30
2017-12-19T00:17:24.452Z,18.60
2017-12-19T00:18:24.470Z,18.70
2017-12-19T00:19:24.503Z,20.30
2017-12-19T00:20:24.480Z,18.20
2017-12-19T00:21:24.525Z,19.40
2017-12-19T00:22:45.607Z,20.20
2017-12-19T00:23:24.595Z,19.50
2017-12-19T00:24:24.554Z,17.70
2017-12-19T00:25:24.564Z,18.00
2017-12-19T00:26:24.571Z,17.60
2017-12-19T00:27:24.601Z,17.40
2017-12-19T00:28:45.600Z,15.80
2017-12-19T00:29:24.688Z,16.50
2017-12-19T00:30:24.717Z,19.00
2017-12-19T00:31:24.635Z,15.50
2017-12-19T00:32:24.676Z,16.30
2017-12-19T00:33:24.668Z,15.30
2017-12-19T00:34:45.703Z,16.10
2017-12-19T00:35:24.692Z,15.90
2017-12-19T00:36:24.802Z,15.00
2017-12-19T00:37:24.799Z,15.10
2017-12-19T00:38:24.756Z,15.70
2017-12-19T00:39:24.769Z,15.10
2017-12-19T00:40:45.784Z,14.70
2017-12-19T00:41:24.794Z,15.00
2017-12-19T00:42:24.799Z,15.40
2017-12-19T00:43:24.874Z,17.70
2017-12-19T00:44:24.897Z,15.10
2017-12-19T00:45:24.816Z,15.50
2017-12-19T00:46:45.884Z,14.70
2017-12-19T00:47:24.870Z,14.80
2017-12-19T00:48:24.857Z,16.40
2017-12-19T00:49:24.899Z,15.60
2017-12-19T00:50:24.967Z,18.80
2017-12-19T00:51:24.944Z,16.80
2017-12-19T00:52:45.982Z,17.70
2017-12-19T00:53:24.942Z,19.00
2017-12-19T00:54:24.964Z,18.10
2017-12-19T00:55:24.980Z,17.20
2017-12-19T00:56:24.991Z,18.50
2017-12-19T00:57:25.074Z,19.10
2017-12-19T00:58:46.065Z,17.80
2017-12-19T00:59:25.053Z,16.50
2017-12-19T01:00:25.073Z,17.20
2017-12-19T01:01:25.062Z,19.50
2017-12-19T01:02:25.092Z,17.60
2017-12-19T01:03:25.082Z,18.60
2017-12-19T01:04:46.175Z,19.50
2017-12-19T01:05:25.195Z,17.50
2017-12-19T01:06:25.128Z,17.40
2017-12-19T01:07:25.133Z,18.50
2017-12-19T01:08:25.150Z,18.40
2017-12-19T01:09:25.158Z,18.90
2017-12-19T01:10:46.197Z,19.30
2017-12-19T01:11:25.210Z,18.70
2017-12-19T01:12:25.273Z,19.10
2017-12-19T01:13:25.288Z,19.00
2017-12-19T01:14:25.220Z,20.00
2017-12-19T01:15:25.246Z,20.00
2017-12-19T01:16:46.293Z,19.50
2017-12-19T01:17:25.266Z,20.20
2017-12-19T01:18:25.283Z,19.60
2017-12-19T01:19:25.376Z,19.50
2017-12-19T01:20:25.355Z,22.30
2017-12-19T01:21:25.341Z,19.90
2017-12-19T01:22:46.346Z,19.50
2017-12-19T01:23:25.319Z,20.70
2017-12-19T01:24:25.324Z,19.20
2017-12-19T01:25:25.373Z,19.10
2017-12-19T01:26:25.438Z,19.70
2017-12-19T01:27:25.462Z,20.10
2017-12-19T01:28:46.435Z,19.20
2017-12-19T01:29:25.430Z,18.70
2017-12-19T01:30:25.454Z,18.80
2017-12-19T01:31:25.452Z,21.40
2017-12-19T01:32:25.468Z,20.60
2017-12-19T01:33:25.522Z,18.50
2017-12-19T01:34:46.562Z,19.90
2017-12-19T01:35:25.529Z,18.80
2017-12-19T01:36:25.521Z,19.50
2017-12-19T01:37:25.530Z,20.10
2017-12-19T01:38:25.547Z,19.90
2017-12-19T01:39:25.563Z,21.60
2017-12-19T01:40:46.671Z,20.10
2017-12-19T01:41:25.645Z,20.70
2017-12-19T01:42:25.607Z,19.30
2017-12-19T01:43:25.623Z,20.30
2017-12-19T01:44:25.627Z,19.80
2017-12-19T01:45:25.663Z,22.70
2017-12-19T01:46:46.678Z,20.50
2017-12-19T01:47:25.677Z,20.00
2017-12-19T01:48:25.733Z,21.00
2017-12-19T01:49:25.691Z,21.60
2017-12-19T01:50:25.720Z,19.70
2017-12-19T01:51:25.696Z,20.90
2017-12-19T01:52:46.747Z,19.10
2017-12-19T01:53:25.742Z,21.60
2017-12-19T01:54:25.765Z,18.50
2017-12-19T01:55:25.841Z,17.70
2017-12-19T01:56:25.777Z,19.60
2017-12-19T01:57:25.797Z,19.90
2017-12-19T01:58:46.827Z,19.40
2017-12-19T01:59:25.843Z,19.10
2017-12-19T02:00:25.846Z,19.10
2017-12-19T02:01:25.981Z,19.90
2017-12-19T02:02:25.961Z,19.20
2017-12-19T02:03:25.937Z,19.70
2017-12-19T02:04:46.899Z,19.40
2017-12-19T02:05:25.929Z,19.30
2017-12-19T02:06:25.964Z,19.20
2017-12-19T02:07:25.924Z,21.10
2017-12-19T02:08:25.959Z,19.70
2017-12-19T02:09:26.024Z,21.10
2017-12-19T02:10:47.046Z,20.80
2017-12-19T02:11:25.991Z,19.70
2017-12-19T02:12:25.994Z,19.30
2017-12-19T02:13:26.002Z,20.00
2017-12-19T02:14:26.006Z,20.70
2017-12-19T02:15:26.052Z,21.60
2017-12-19T02:16:47.151Z,19.00
2017-12-19T02:17:26.171Z,22.90
2017-12-19T02:18:26.048Z,21.10
2017-12-19T02:19:26.097Z,22.00
2017-12-19T02:20:26.089Z,24.00
2017-12-19T02:21:26.107Z,22.10
2017-12-19T02:22:47.156Z,22.00
2017-12-19T02:23:26.238Z,21.00
2017-12-19T02:24:26.269Z,26.20
2017-12-19T02:25:26.153Z,28.10
2017-12-19T02:26:26.199Z,22.00
2017-12-19T02:27:26.215Z,21.30
2017-12-19T02:28:47.213Z,24.70
2017-12-19T02:29:26.257Z,24.50
2017-12-19T02:30:26.312Z,23.10
2017-12-19T02:31:26.335Z,24.60
2017-12-19T02:32:26.291Z,28.20
2017-12-19T02:33:26.261Z,27.10
2017-12-19T02:34:47.336Z,26.00
2017-12-19T02:35:26.310Z,28.70
2017-12-19T02:36:26.326Z,25.30
2017-12-19T02:37:26.378Z,29.30
2017-12-19T02:38:26.425Z,30.80
2017-12-19T02:39:26.339Z,27.50
2017-12-19T02:40:47.411Z,28.90
2017-12-19T02:41:26.388Z,31.20
2017-12-19T02:42:26.408Z,31.90
2017-12-19T02:43:26.431Z,37.40
2017-12-19T02:44:26.453Z,31.20
2017-12-19T02:45:26.528Z,31.00
2017-12-19T02:46:47.471Z,31.20
2017-12-19T02:47:26.490Z,30.00
2017-12-19T02:48:26.492Z,30.80
2017-12-19T02:49:26.501Z,36.00
2017-12-19T02:50:26.528Z,33.40
2017-12-19T02:51:26.554Z,33.80
2017-12-19T02:52:47.619Z,34.60
2017-12-19T02:53:26.559Z,33.20
2017-12-19T02:54:26.581Z,32.00
2017-12-19T02:55:26.588Z,30.50
2017-12-19T02:56:26.599Z,37.00
2017-12-19T02:57:26.611Z,32.80
2017-12-19T02:58:47.700Z,33.30
2017-12-19T02:59:26.688Z,36.30
2017-12-19T03:00:26.667Z,33.00
2017-12-19T03:01:26.665Z,31.90
2017-12-19T03:02:26.674Z,30.40
2017-12-19T03:03:26.693Z,27.80
2017-12-19T03:04:47.726Z,30.10
2017-12-19T03:05:26.745Z,31.90
2017-12-19T03:06:26.777Z,29.70
2017-12-19T03:07:26.726Z,31.00
2017-12-19T03:08:26.740Z,28.70
2017-12-19T03:09:26.800Z,31.50
2017-12-19T03:10:47.799Z,31.80
2017-12-19T03:11:26.794Z,30.70
2017-12-19T03:12:26.872Z,27.30
2017-12-19T03:13:26.857Z,31.80
2017-12-19T03:14:26.832Z,34.20
2017-12-19T03:15:26.850Z,30.00
2017-12-19T03:16:47.882Z,32.70
2017-12-19T03:17:26.895Z,30.30
2017-12-19T03:18:26.816Z,33.40
2017-12-19T03:19:26.920Z,38.00
2017-12-19T03:20:26.962Z,40.50
2017-12-19T03:21:27.023Z,36.90
2017-12-19T03:22:47.934Z,41.90
2017-12-19T03:23:26.953Z,37.90
2017-12-19T03:24:26.974Z,40.10
2017-12-19T03:25:27.009Z,39.90
2017-12-19T03:26:27.002Z,38.40
2017-12-19T03:27:27.103Z,38.90
2017-12-19T03:28:48.049Z,37.90
2017-12-19T03:29:27.026Z,37.30
2017-12-19T03:30:27.068Z,36.50
2017-12-19T03:31:27.040Z,36.80
2017-12-19T03:32:27.108Z,37.90
2017-12-19T03:33:27.110Z,42.00
2017-12-19T03:34:48.195Z,38.80
2017-12-19T03:35:27.206Z,42.60
2017-12-19T03:36:27.122Z,39.40
2017-12-19T03:37:27.161Z,40.00
2017-12-19T03:38:27.143Z,40.10
2017-12-19T03:39:27.184Z,46.20
2017-12-19T03:40:48.209Z,40.70
2017-12-19T03:41:27.299Z,40.60
2017-12-19T03:42:27.297Z,43.60
2017-12-19T03:43:27.175Z,43.00
2017-12-19T03:44:27.248Z,41.10
2017-12-19T03:45:27.256Z,41.70
2017-12-19T03:46:48.287Z,43.00
2017-12-19T03:47:27.275Z,43.90
2017-12-19T03:48:27.306Z,46.40
2017-12-19T03:49:27.402Z,42.70
2017-12-19T03:50:27.417Z,44.70
2017-12-19T03:51:27.315Z,43.90
2017-12-19T03:52:48.374Z,45.80
2017-12-19T03:53:27.373Z,44.60
2017-12-19T03:54:27.375Z,43.20
2017-12-19T03:55:27.392Z,42.70
2017-12-19T03:56:27.498Z,43.10
2017-12-19T03:57:27.507Z,44.40
2017-12-19T03:58:48.451Z,45.40
2017-12-19T03:59:27.453Z,47.40
2017-12-19T04:00:27.460Z,44.50
2017-12-19T04:01:27.473Z,43.30
2017-12-19T04:02:27.481Z,45.80
2017-12-19T04:03:27.586Z,43.10
2017-12-19T04:04:48.620Z,43.90
2017-12-19T04:05:27.539Z,47.20
2017-12-19T04:06:27.552Z,40.80
2017-12-19T04:07:27.539Z,41.30
2017-12-19T04:08:27.568Z,39.60
2017-12-19T04:09:27.571Z,44.20
2017-12-19T04:10:48.656Z,44.20
2017-12-19T04:11:27.668Z,41.90
2017-12-19T04:12:27.603Z,46.80
2017-12-19T04:13:27.613Z,42.10
2017-12-19T04:14:27.646Z,44.20
2017-12-19T04:15:27.669Z,43.00
2017-12-19T04:16:48.687Z,41.90
2017-12-19T04:17:27.766Z,41.80
2017-12-19T04:18:27.795Z,41.60
2017-12-19T04:19:27.821Z,44.60
2017-12-19T04:20:27.697Z,41.60
2017-12-19T04:21:27.746Z,41.40
2017-12-19T04:22:48.787Z,41.60
2017-12-19T04:23:27.766Z,39.00
2017-12-19T04:24:27.801Z,40.70
2017-12-19T04:25:27.881Z,39.60
2017-12-19T04:26:27.904Z,41.10
2017-12-19T04:27:27.844Z,43.30
2017-12-19T04:28:48.851Z,46.20
2017-12-19T04:29:27.857Z,43.10
2017-12-19T04:30:27.866Z,44.00
2017-12-19T04:31:27.896Z,40.70
2017-12-19T04:32:27.981Z,43.60
2017-12-19T04:33:27.998Z,43.10
2017-12-19T04:34:48.927Z,40.50
2017-12-19T04:35:27.941Z,40.10
2017-12-19T04:36:27.953Z,38.30
2017-12-19T04:37:27.951Z,39.00
2017-12-19T04:38:27.976Z,37.70
2017-12-19T04:39:28.037Z,39.90
2017-12-19T04:40:49.085Z,41.40
2017-12-19T04:41:28.010Z,40.50
2017-12-19T04:42:28.024Z,40.70
2017-12-19T04:43:28.038Z,36.80
2017-12-19T04:44:28.071Z,37.20
2017-12-19T04:45:28.073Z,36.60
2017-12-19T04:46:49.167Z,38.50
2017-12-19T04:47:28.174Z,39.20
2017-12-19T04:48:28.185Z,35.80
2017-12-19T04:49:28.079Z,37.00
2017-12-19T04:50:28.128Z,41.90
2017-12-19T04:51:28.138Z,36.80
2017-12-19T04:52:49.177Z,37.70
2017-12-19T04:53:28.235Z,37.80
2017-12-19T04:54:28.256Z,36.40
2017-12-19T04:55:28.204Z,36.20
2017-12-19T04:56:28.204Z,39.40
2017-12-19T04:57:28.242Z,39.50
2017-12-19T04:58:49.215Z,40.30
2017-12-19T04:59:28.272Z,36.30
2017-12-19T05:00:28.355Z,39.70
2017-12-19T05:01:28.337Z,36.70
2017-12-19T05:02:28.380Z,39.40
2017-12-19T05:03:28.292Z,39.30
2017-12-19T05:04:49.336Z,41.80
2017-12-19T05:05:28.340Z,50.90
2017-12-19T05:06:28.355Z,45.90
2017-12-19T05:07:28.405Z,41.00
2017-12-19T05:08:28.448Z,41.20
2017-12-19T05:09:28.364Z,43.60
2017-12-19T05:10:49.427Z,40.70
2017-12-19T05:11:28.437Z,42.10
2017-12-19T05:12:28.450Z,41.50
2017-12-19T05:13:28.457Z,49.70
2017-12-19T05:14:28.454Z,46.80
2017-12-19T05:15:28.538Z,42.80
2017-12-19T05:16:49.580Z,43.50
2017-12-19T05:17:28.512Z,50.00
2017-12-19T05:18:28.508Z,49.20
2017-12-19T05:19:28.524Z,45.40
2017-12-19T05:20:28.548Z,51.80
2017-12-19T05:21:28.548Z,67.80
2017-12-19T05:22:49.666Z,106.30
2017-12-19T05:23:28.589Z,105.10
2017-12-19T05:24:28.591Z,109.90
2017-12-19T05:25:28.601Z,71.70
2017-12-19T05:26:28.614Z,69.70
2017-12-19T05:27:28.645Z,63.10
2017-12-19T05:28:49.726Z,54.00
2017-12-19T05:29:28.743Z,51.30
2017-12-19T05:30:28.766Z,49.40
2017-12-19T05:31:28.688Z,50.80
2017-12-19T05:32:28.702Z,54.40
2017-12-19T05:33:28.721Z,51.10
2017-12-19T05:34:49.721Z,46.90
2017-12-19T05:35:28.741Z,53.30
2017-12-19T05:36:28.846Z,46.00
2017-12-19T05:37:28.820Z,44.20
2017-12-19T05:38:28.779Z,42.60
2017-12-19T05:39:28.874Z,44.70
2017-12-19T05:40:49.834Z,42.40
2017-12-19T05:41:28.827Z,41.00
2017-12-19T05:42:28.831Z,40.30
2017-12-19T05:43:28.913Z,39.20
2017-12-19T05:44:28.932Z,39.70
2017-12-19T05:45:28.886Z,40.30
2017-12-19T05:46:49.906Z,39.90
2017-12-19T05:47:28.920Z,40.10
2017-12-19T05:48:28.879Z,40.40
2017-12-19T05:49:28.947Z,42.50
2017-12-19T05:50:29.035Z,43.60
2017-12-19T05:51:29.043Z,39.50
2017-12-19T05:52:49.992Z,39.30
2017-12-19T05:53:28.981Z,38.50
2017-12-19T05:54:29.008Z,42.20
2017-12-19T05:55:29.019Z,40.30
2017-12-19T05:56:29.030Z,42.40
2017-12-19T05:57:29.088Z,41.60
2017-12-19T05:58:50.128Z,43.70
2017-12-19T05:59:29.069Z,44.10
2017-12-19T06:00:29.082Z,45.30
2017-12-19T06:01:29.116Z,40.30
2017-12-19T06:02:29.153Z,45.30
2017-12-19T06:03:29.120Z,39.00
2017-12-19T06:04:50.234Z,42.00
2017-12-19T06:05:29.257Z,39.00
2017-12-19T06:06:29.170Z,40.10
2017-12-19T06:07:29.187Z,37.10
2017-12-19T06:08:29.192Z,35.60
2017-12-19T06:09:29.214Z,38.60
2017-12-19T06:10:50.245Z,44.00
2017-12-19T06:11:29.330Z,43.70
2017-12-19T06:12:29.302Z,38.50
2017-12-19T06:13:29.268Z,38.20
2017-12-19T06:14:29.279Z,36.50
2017-12-19T06:15:29.302Z,36.50
2017-12-19T06:16:50.332Z,40.00
2017-12-19T06:17:29.291Z,39.70
2017-12-19T06:18:29.396Z,38.90
2017-12-19T06:19:29.439Z,39.00
2017-12-19T06:20:29.354Z,41.30
2017-12-19T06:21:29.370Z,36.60
2017-12-19T06:22:50.409Z,38.60
2017-12-19T06:23:29.419Z,40.50
2017-12-19T06:24:29.420Z,39.10
2017-12-19T06:25:29.506Z,37.80
2017-12-19T06:26:29.519Z,40.30
2017-12-19T06:27:29.429Z,37.10
2017-12-19T06:28:50.484Z,39.60
2017-12-19T06:29:29.492Z,43.50
2017-12-19T06:30:29.454Z,41.40
2017-12-19T06:31:29.526Z,42.70
2017-12-19T06:32:29.546Z,42.90
2017-12-19T06:33:29.616Z,47.30
2017-12-19T06:34:50.578Z,43.50
2017-12-19T06:35:29.570Z,43.50
2017-12-19T06:36:29.576Z,44.30
2017-12-19T06:37:29.593Z,47.50
2017-12-19T06:38:29.610Z,51.10
2017-12-19T06:39:29.694Z,45.50
2017-12-19T06:40:50.708Z,46.40
2017-12-19T06:41:29.658Z,41.70
2017-12-19T06:42:29.657Z,41.00
2017-12-19T06:43:29.674Z,39.10
2017-12-19T06:44:29.685Z,42.50
2017-12-19T06:45:29.722Z,46.90
2017-12-19T06:46:50.803Z,49.20
2017-12-19T06:47:29.811Z,50.70
2017-12-19T06:48:29.801Z,50.60
2017-12-19T06:49:29.739Z,56.60
2017-12-19T06:50:29.765Z,49.40
2017-12-19T06:51:29.789Z,48.30
2017-12-19T06:52:50.783Z,56.10
2017-12-19T06:53:29.820Z,50.50
2017-12-19T06:54:29.892Z,53.20
2017-12-19T06:55:29.883Z,50.40
2017-12-19T06:56:29.859Z,56.40
2017-12-19T06:57:29.873Z,52.10
2017-12-19T06:58:50.907Z,52.70
2017-12-19T06:59:29.892Z,55.70
2017-12-19T07:00:29.922Z,54.10
2017-12-19T07:01:29.998Z,55.20
2017-12-19T07:02:30.022Z,57.00
2017-12-19T07:03:29.949Z,54.00
2017-12-19T07:04:50.991Z,52.30
2017-12-19T07:05:29.997Z,55.50
2017-12-19T07:06:30.016Z,52.40
2017-12-19T07:07:30.046Z,57.20
2017-12-19T07:08:30.110Z,49.10
2017-12-19T07:09:30.032Z,48.90
2017-12-19T07:10:51.085Z,53.40
2017-12-19T07:11:30.085Z,60.30
2017-12-19T07:12:30.048Z,50.80
2017-12-19T07:13:30.107Z,60.20
2017-12-19T07:14:30.174Z,53.70
2017-12-19T07:15:30.155Z,50.20
2017-12-19T07:16:51.157Z,55.50
2017-12-19T07:17:30.145Z,56.20
2017-12-19T07:18:30.139Z,51.10
2017-12-19T07:19:30.181Z,56.00
2017-12-19T07:20:30.173Z,53.10
2017-12-19T07:21:30.280Z,51.10
2017-12-19T07:22:51.288Z,50.50
2017-12-19T07:23:30.230Z,52.50
2017-12-19T07:24:30.242Z,50.80
2017-12-19T07:25:30.247Z,50.40
2017-12-19T07:26:30.209Z,48.40
2017-12-19T07:27:30.286Z,55.80
2017-12-19T07:28:51.386Z,51.00
2017-12-19T07:29:30.385Z,55.00
2017-12-19T07:30:30.419Z,51.90
2017-12-19T07:31:30.330Z,53.50
2017-12-19T07:32:30.340Z,47.80
2017-12-19T07:33:30.383Z,50.60
2017-12-19T07:34:51.388Z,55.90
2017-12-19T07:35:30.448Z,48.90
2017-12-19T07:36:30.480Z,48.10
2017-12-19T07:37:30.505Z,46.40
2017-12-19T07:38:30.430Z,45.40
2017-12-19T07:39:30.412Z,46.80
2017-12-19T07:40:51.481Z,47.10
2017-12-19T07:41:30.471Z,51.50
2017-12-19T07:42:30.501Z,49.80
2017-12-19T07:43:30.576Z,45.50
2017-12-19T07:44:30.520Z,44.90
2017-12-19T07:45:30.493Z,47.00
2017-12-19T07:46:51.568Z,45.70
2017-12-19T07:47:30.568Z,41.80
2017-12-19T07:48:30.568Z,45.70
2017-12-19T07:49:30.598Z,42.70
2017-12-19T07:50:30.642Z,43.80
2017-12-19T07:51:30.679Z,40.50
2017-12-19T07:52:51.634Z,37.60
2017-12-19T07:53:30.605Z,40.60
2017-12-19T07:54:30.646Z,39.20
2017-12-19T07:55:30.668Z,37.50
2017-12-19T07:56:30.662Z,39.30
2017-12-19T07:57:30.711Z,42.40
2017-12-19T07:58:51.794Z,38.70
2017-12-19T07:59:30.724Z,44.40
2017-12-19T08:00:30.756Z,39.00
2017-12-19T08:01:30.741Z,40.70
2017-12-19T08:02:30.766Z,41.20
2017-12-19T08:03:30.771Z,40.70
2017-12-19T08:04:51.894Z,45.20
2017-12-19T08:05:30.832Z,41.60
2017-12-19T08:06:30.830Z,42.80
2017-12-19T08:07:30.842Z,38.70
2017-12-19T08:08:30.808Z,48.10
2017-12-19T08:09:30.854Z,40.80
2017-12-19T08:10:51.961Z,42.50
2017-12-19T08:11:30.944Z,45.30
2017-12-19T08:12:30.946Z,49.00
2017-12-19T08:13:30.912Z,43.30
2017-12-19T08:14:30.935Z,48.00
2017-12-19T08:15:30.923Z,48.40
2017-12-19T08:16:51.946Z,46.50
2017-12-19T08:17:30.988Z,42.60
2017-12-19T08:18:31.021Z,44.10
2017-12-19T08:19:31.072Z,45.80
2017-12-19T08:20:31.010Z,45.10
2017-12-19T08:21:31.025Z,45.00
2017-12-19T08:22:52.048Z,45.60
2017-12-19T08:23:31.040Z,42.60
2017-12-19T08:24:31.055Z,45.20
2017-12-19T08:25:31.130Z,43.40
2017-12-19T08:26:31.168Z,47.90
2017-12-19T08:27:31.110Z,48.40
2017-12-19T08:28:52.141Z,48.00
2017-12-19T08:29:31.131Z,52.80
2017-12-19T08:30:31.162Z,44.20
2017-12-19T08:31:31.161Z,44.00
2017-12-19T08:32:31.265Z,48.10
2017-12-19T08:33:31.292Z,48.70
2017-12-19T08:34:52.192Z,45.90
2017-12-19T08:35:31.243Z,42.90
2017-12-19T08:36:31.250Z,51.30
2017-12-19T08:37:31.254Z,51.00
2017-12-19T08:38:31.264Z,43.90
2017-12-19T08:39:31.352Z,57.60
2017-12-19T08:40:52.378Z,47.40
2017-12-19T08:41:31.320Z,52.00
2017-12-19T08:42:31.312Z,53.90
2017-12-19T08:43:31.332Z,55.20
2017-12-19T08:44:31.351Z,60.10
2017-12-19T08:45:31.376Z,54.00
2017-12-19T08:46:52.465Z,50.50
2017-12-19T08:47:31.439Z,50.60
2017-12-19T08:48:31.466Z,47.80
2017-12-19T08:49:31.463Z,47.90
2017-12-19T08:50:31.443Z,50.30
2017-12-19T08:51:31.429Z,49.90
2017-12-19T08:52:52.465Z,43.50
2017-12-19T08:53:31.518Z,47.30
2017-12-19T08:54:31.552Z,45.50
2017-12-19T08:55:31.611Z,45.30
2017-12-19T08:56:31.496Z,45.10
2017-12-19T08:57:31.545Z,48.60
2017-12-19T08:58:52.574Z,44.80
2017-12-19T08:59:31.560Z,47.00
2017-12-19T09:00:31.606Z,40.00
2017-12-19T09:01:31.567Z,42.70
2017-12-19T09:02:31.686Z,40.80
2017-12-19T09:03:31.599Z,42.40
2017-12-19T09:04:52.648Z,39.70
2017-12-19T09:05:31.693Z,40.40
2017-12-19T09:06:31.680Z,41.40
2017-12-19T09:07:31.669Z,40.20
2017-12-19T09:08:31.727Z,41.50
2017-12-19T09:09:31.780Z,39.30
2017-12-19T09:10:52.719Z,36.20
2017-12-19T09:11:31.733Z,35.60
2017-12-19T09:12:31.749Z,39.00
2017-12-19T09:13:31.752Z,41.90
2017-12-19T09:14:31.797Z,37.40
2017-12-19T09:15:31.793Z,40.00
2017-12-19T09:16:52.900Z,37.90
2017-12-19T09:17:31.868Z,34.80
2017-12-19T09:18:31.835Z,34.80
2017-12-19T09:19:31.820Z,32.90
2017-12-19T09:20:31.867Z,34.40
2017-12-19T09:21:31.849Z,33.40
2017-12-19T09:22:52.910Z,28.90
2017-12-19T09:23:31.954Z,30.10
2017-12-19T09:24:31.986Z,32.30
2017-12-19T09:25:31.916Z,31.50
2017-12-19T09:26:31.929Z,29.50
2017-12-19T09:27:31.920Z,30.30
2017-12-19T09:28:52.981Z,30.90
2017-12-19T09:29:32.052Z,27.40
2017-12-19T09:30:32.008Z,32.10
2017-12-19T09:31:32.085Z,32.40
2017-12-19T09:32:32.079Z,34.50
2017-12-19T09:33:32.035Z,35.10
2017-12-19T09:34:53.084Z,34.20
2017-12-19T09:35:32.053Z,34.60
2017-12-19T09:36:32.078Z,34.50
2017-12-19T09:37:32.110Z,36.50
2017-12-19T09:38:32.171Z,38.60
2017-12-19T09:39:32.167Z,35.80
2017-12-19T09:40:53.128Z,43.30
2017-12-19T09:41:32.122Z,43.20
2017-12-19T09:42:32.173Z,45.10
2017-12-19T09:43:32.178Z,45.90
2017-12-19T09:44:32.187Z,49.00
2017-12-19T09:45:32.270Z,49.60
2017-12-19T09:46:53.309Z,57.10
2017-12-19T09:47:32.241Z,56.40
2017-12-19T09:48:32.271Z,51.90
2017-12-19T09:49:32.286Z,47.70
2017-12-19T09:50:32.300Z,51.20
2017-12-19T09:51:32.294Z,51.50
2017-12-19T09:52:53.445Z,41.10
2017-12-19T09:53:32.438Z,49.20
2017-12-19T09:54:32.397Z,43.50
2017-12-19T09:55:32.356Z,47.10
2017-12-19T09:56:32.352Z,40.30
2017-12-19T09:57:32.386Z,53.70
2017-12-19T09:58:53.366Z,60.10
2017-12-19T09:59:32.457Z,59.00
2017-12-19T10:00:32.479Z,56.40
2017-12-19T10:01:32.544Z,56.50
2017-12-19T10:02:32.413Z,48.00
2017-12-19T10:03:32.468Z,59.30
2017-12-19T10:04:53.508Z,64.40
2017-12-19T10:05:32.457Z,69.60
2017-12-19T10:06:32.518Z,63.00
2017-12-19T10:07:32.562Z,54.00
2017-12-19T10:08:32.638Z,64.50
2017-12-19T10:09:32.558Z,55.00
2017-12-19T10:10:53.584Z,63.90
2017-12-19T10:11:32.574Z,53.10
2017-12-19T10:12:32.609Z,56.40
2017-12-19T10:13:32.620Z,54.10
2017-12-19T10:14:32.699Z,54.10
2017-12-19T10:15:32.759Z,59.60
2017-12-19T10:16:53.662Z,62.80
2017-12-19T10:17:32.638Z,60.00
2017-12-19T10:18:32.686Z,58.30
2017-12-19T10:19:32.696Z,62.80
2017-12-19T10:20:32.728Z,62.00
2017-12-19T10:21:32.814Z,46.20
2017-12-19T10:22:53.823Z,43.40
2017-12-19T10:23:32.779Z,49.40
2017-12-19T10:24:32.765Z,43.60
2017-12-19T10:25:32.793Z,49.40
2017-12-19T10:26:32.779Z,51.20
2017-12-19T10:27:32.808Z,50.70
2017-12-19T10:28:53.922Z,60.80
2017-12-19T10:29:32.953Z,51.70
2017-12-19T10:30:32.863Z,43.60
2017-12-19T10:31:32.839Z,53.10
2017-12-19T10:32:32.852Z,44.20
2017-12-19T10:33:32.902Z,37.00
2017-12-19T10:34:53.919Z,40.90
2017-12-19T10:35:33.033Z,39.20
2017-12-19T10:36:33.023Z,32.70
2017-12-19T10:37:33.065Z,22.50
2017-12-19T10:38:32.933Z,22.90
2017-12-19T10:39:32.997Z,22.80
2017-12-19T10:40:53.991Z,31.20
2017-12-19T10:41:33.032Z,29.20
2017-12-19T10:42:33.077Z,25.10
2017-12-19T10:43:33.106Z,24.80
2017-12-19T10:44:33.054Z,27.90
2017-12-19T10:45:33.064Z,23.50
2017-12-19T10:46:54.128Z,20.30
2017-12-19T10:47:33.098Z,21.50
2017-12-19T10:48:33.125Z,19.20
2017-12-19T10:49:33.158Z,16.30
2017-12-19T10:50:33.220Z,21.10
2017-12-19T10:51:33.239Z,31.60
2017-12-19T10:52:54.171Z,30.60
2017-12-19T10:53:33.185Z,30.30
2017-12-19T10:54:33.168Z,27.70
2017-12-19T10:55:33.247Z,27.80
2017-12-19T10:56:33.242Z,27.10
2017-12-19T10:57:33.312Z,19.80
2017-12-19T10:58:54.348Z,23.20
2017-12-19T10:59:33.274Z,19.70
2017-12-19T11:00:33.302Z,45.10
2017-12-19T11:01:33.305Z,56.80
2017-12-19T11:02:33.328Z,38.00
2017-12-19T11:03:33.321Z,31.00
2017-12-19T11:04:54.428Z,35.80
2017-12-19T11:05:33.396Z,42.60
2017-12-19T11:06:33.375Z,35.20
2017-12-19T11:07:33.385Z,31.00
2017-12-19T11:08:33.396Z,31.80
2017-12-19T11:09:33.412Z,60.80
2017-12-19T11:10:54.445Z,41.70
2017-12-19T11:11:33.534Z,32.70
2017-12-19T11:12:33.553Z,33.70
2017-12-19T11:13:33.479Z,32.10
2017-12-19T11:14:33.480Z,28.80
2017-12-19T11:15:33.487Z,28.10
2017-12-19T11:16:54.528Z,30.00
2017-12-19T11:17:33.524Z,36.90
2017-12-19T11:18:33.589Z,41.70
2017-12-19T11:19:33.647Z,68.50
2017-12-19T11:20:33.589Z,92.60
2017-12-19T11:21:33.563Z,80.20
2017-12-19T11:22:54.615Z,44.10
2017-12-19T11:23:33.628Z,29.80
2017-12-19T11:24:33.615Z,28.50
2017-12-19T11:25:33.707Z,74.00
2017-12-19T11:26:33.690Z,31.10
2017-12-19T11:27:33.642Z,50.30
2017-12-19T11:28:54.662Z,52.10
2017-12-19T11:29:33.708Z,37.00
2017-12-19T11:30:33.744Z,38.20
2017-12-19T11:31:33.736Z,36.30
2017-12-19T11:32:33.841Z,28.30
2017-12-19T11:33:33.806Z,22.60
2017-12-19T11:34:54.786Z,18.00
2017-12-19T11:35:33.788Z,16.70
2017-12-19T11:36:33.813Z,16.10
2017-12-19T11:37:33.822Z,14.70
2017-12-19T11:38:33.835Z,17.20
2017-12-19T11:39:33.921Z,16.30
2017-12-19T11:40:54.984Z,20.10
2017-12-19T11:41:33.954Z,19.60
2017-12-19T11:42:33.900Z,15.80
2017-12-19T11:43:33.912Z,18.00
2017-12-19T11:44:33.916Z,20.00
2017-12-19T11:45:33.944Z,17.30
2017-12-19T11:46:54.966Z,19.20
2017-12-19T11:47:34.059Z,18.80
2017-12-19T11:48:34.031Z,21.20
2017-12-19T11:49:33.968Z,21.10
2017-12-19T11:50:34.007Z,31.40
2017-12-19T11:51:34.024Z,33.10
2017-12-19T11:52:55.055Z,21.40
2017-12-19T11:53:34.058Z,21.90
2017-12-19T11:54:34.121Z,17.80
2017-12-19T11:55:34.163Z,20.60
2017-12-19T11:56:34.111Z,32.70
2017-12-19T11:57:34.110Z,23.20
2017-12-19T11:58:55.119Z,27.70
2017-12-19T11:59:34.141Z,26.00
2017-12-19T12:00:34.151Z,22.60
2017-12-19T12:01:34.271Z,32.40
2017-12-19T12:02:34.234Z,27.90
2017-12-19T12:03:34.260Z,25.00
2017-12-19T12:04:55.241Z,29.50
2017-12-19T12:05:34.231Z,22.30
2017-12-19T12:06:34.237Z,20.40
2017-12-19T12:07:34.266Z,25.50
2017-12-19T12:08:34.287Z,23.50
2017-12-19T12:09:34.315Z,20.00
2017-12-19T12:10:55.571Z,22.50
2017-12-19T12:11:34.351Z,27.50
2017-12-19T12:12:34.342Z,26.40
2017-12-19T12:13:34.353Z,25.80
2017-12-19T12:14:34.360Z,23.80
2017-12-19T12:15:34.436Z,20.40
2017-12-19T12:16:55.495Z,28.20
2017-12-19T12:17:34.405Z,29.00
2017-12-19T12:18:34.420Z,31.10
2017-12-19T12:19:34.397Z,32.80
2017-12-19T12:20:34.443Z,31.80
2017-12-19T12:21:34.458Z,25.50
2017-12-19T12:22:55.515Z,24.00
2017-12-19T12:23:34.561Z,26.20
2017-12-19T12:24:34.488Z,26.50
2017-12-19T12:25:34.531Z,21.70
2017-12-19T12:26:34.532Z,19.50
2017-12-19T12:27:34.573Z,18.70
2017-12-19T12:28:55.596Z,17.10
2017-12-19T12:29:34.579Z,14.60
2017-12-19T12:30:34.668Z,17.00
2017-12-19T12:31:34.689Z,15.70
2017-12-19T12:32:34.620Z,17.20
2017-12-19T12:33:34.650Z,14.80
2017-12-19T12:34:55.627Z,18.10
2017-12-19T12:35:34.674Z,22.20
2017-12-19T12:36:34.702Z,17.80
2017-12-19T12:37:34.786Z,21.30
2017-12-19T12:38:34.789Z,22.40
2017-12-19T12:39:34.720Z,20.70
2017-12-19T12:40:55.753Z,22.20
2017-12-19T12:41:34.786Z,22.50
2017-12-19T12:42:34.735Z,18.70
2017-12-19T12:43:34.780Z,26.20
2017-12-19T12:44:34.849Z,18.70
2017-12-19T12:45:34.865Z,41.30
2017-12-19T12:46:55.805Z,32.40
2017-12-19T12:47:34.836Z,23.20
2017-12-19T12:48:34.849Z,26.30
2017-12-19T12:49:34.874Z,21.00
2017-12-19T12:50:34.876Z,20.60
2017-12-19T12:51:34.980Z,15.00
2017-12-19T12:52:56.015Z,24.10